Time;durP1;ratioP1;P1;durP2;ratioP2;P2;SDS_P1;SDS_P2;PMS_P1;PMS_P2;Temp;Humidity;BMP_temperature;BMP_pressure;BME280_temperature;BME280_humidity;BME280_pressure;Samples;Min_cycle;Max_cycle;Signal;HPM_P1;HPM_P2
2022/12/18 00:00:44;;;;;;;;;;;;;;;9.81;81.79;95827.22;5114004;28;1023;-59
2022/12/18 00:03:10;;;;;;;;;;;;;;;9.95;82.02;95833.00;5114064;28;991;-59
2022/12/18 00:05:36;;;;;;;;;;;;;;;10.04;81.85;95834.00;5112839;28;987;-60
2022/12/18 00:08:03;;;;;;;;;;;;;;;10.11;81.69;95839.59;5113785;28;1071;-60
2022/12/18 00:10:29;;;;;;;;;;;;;;;10.14;81.36;95834.81;5114157;28;976;-60
2022/12/18 00:12:55;;;;;;;;;;;;;;;10.02;80.95;95845.81;5113941;28;1913;-60
2022/12/18 00:15:21;;;;;;;;;;;;;;;10.03;81.77;95850.16;5114076;28;991;-59
2022/12/18 00:17:47;;;;;;;;;;;;;;;10.00;82.39;95845.94;5112627;28;1083;-59
2022/12/18 00:20:13;;;;;;;;;;;;;;;10.00;82.99;95850.44;5113888;28;1011;-59
2022/12/18 00:22:39;;;;;;;;;;;;;;;10.07;82.80;95863.13;5112638;28;972;-59
2022/12/18 00:25:05;;;;;;;;;;;;;;;10.17;83.52;95865.78;5113678;28;1087;-59
2022/12/18 00:27:31;;;;;;;;;;;;;;;10.21;84.03;95861.00;5113825;28;1159;-59
2022/12/18 00:29:57;;;;;;;;;;;;;;;10.29;84.19;95864.63;5113809;28;1118;-59
2022/12/18 00:32:23;;;;;;;;;;;;;;;10.25;83.64;95868.56;5113783;28;1988;-59
2022/12/18 00:34:49;;;;;;;;;;;;;;;10.32;83.99;95871.53;5112492;28;999;-59
2022/12/18 00:37:15;;;;;;;;;;;;;;;10.40;84.08;95868.19;5112437;28;1095;-59
2022/12/18 00:39:41;;;;;;;;;;;;;;;10.50;84.00;95864.50;5113920;28;1031;-59
2022/12/18 00:43:08;;;;;;;;;;;;;;;10.54;84.17;95863.22;5112380;28;1142;-59
2022/12/18 00:45:03;;;;;;;;;;;;;;;10.61;84.49;95868.84;5108534;28;1218;-59
2022/12/18 00:47:29;;;;;;;;;;;;;;;10.68;84.52;95877.13;5113465;28;1244;-59
2022/12/18 00:49:55;;;;;;;;;;;;;;;10.79;84.04;95873.44;5113234;28;1104;-60
2022/12/18 00:52:21;;;;;;;;;;;;;;;10.82;84.43;95873.19;5113473;28;1909;-59
2022/12/18 00:54:47;;;;;;;;;;;;;;;10.74;85.45;95881.94;5113423;28;1032;-60
2022/12/18 00:57:13;;;;;;;;;;;;;;;10.70;86.25;95886.72;5112469;28;1003;-60
2022/12/18 00:59:39;;;;;;;;;;;;;;;10.85;85.71;95884.44;5113443;28;1027;-59
2022/12/18 01:02:05;;;;;;;;;;;;;;;10.98;85.59;95891.28;5113327;28;1122;-60
2022/12/18 01:04:32;;;;;;;;;;;;;;;11.06;84.79;95894.94;5112533;28;1039;-59
2022/12/18 01:06:58;;;;;;;;;;;;;;;11.10;85.13;95898.16;5115812;28;1070;-59
2022/12/18 01:09:24;;;;;;;;;;;;;;;11.11;84.59;95897.16;5117238;28;1094;-59
2022/12/18 01:11:50;;;;;;;;;;;;;;;11.11;85.19;95903.34;5115895;28;1992;-59
2022/12/18 01:14:16;;;;;;;;;;;;;;;11.11;85.03;95891.81;5117314;28;1059;-59
2022/12/18 01:16:42;;;;;;;;;;;;;;;11.16;84.97;95894.06;5115881;28;1019;-59
2022/12/18 01:19:09;;;;;;;;;;;;;;;11.17;84.83;95895.72;5117006;28;1545;-59
2022/12/18 01:21:35;;;;;;;;;;;;;;;11.16;84.83;95899.41;5117192;28;1003;-59
2022/12/18 01:24:01;;;;;;;;;;;;;;;11.09;85.52;95904.50;5115864;28;960;-59
2022/12/18 01:26:29;;;;;;;;;;;;;;;11.17;85.12;95903.75;5117106;28;948;-60
2022/12/18 01:28:56;;;;;;;;;;;;;;;11.11;85.42;95906.03;5116828;28;1118;-59
2022/12/18 01:31:24;;;;;;;;;;;;;;;11.06;85.60;95904.75;5116773;28;1031;-59
2022/12/18 01:33:50;;;;;;;;;;;;;;;11.18;85.26;95911.66;5116642;28;1981;-59
2022/12/18 01:36:21;;;;;;;;;;;;;;;11.28;84.92;95907.09;5116952;28;1042;-59
2022/12/18 01:38:47;;;;;;;;;;;;;;;11.37;84.30;95918.75;5116782;28;1027;-59
2022/12/18 01:41:15;;;;;;;;;;;;;;;11.35;84.01;95918.06;5116777;28;964;-60
2022/12/18 01:43:41;;;;;;;;;;;;;;;11.37;83.98;95924.13;5116673;28;983;-59
2022/12/18 01:46:07;;;;;;;;;;;;;;;11.30;84.18;95914.97;5116479;27;1010;-59
2022/12/18 01:48:33;;;;;;;;;;;;;;;11.35;84.23;95920.75;5116431;28;1645;-59
2022/12/18 01:50:59;;;;;;;;;;;;;;;11.41;84.08;95922.00;5115003;28;1250;-60
2022/12/18 01:53:25;;;;;;;;;;;;;;;11.44;83.66;95913.66;5115325;28;1905;-60
2022/12/18 01:55:53;;;;;;;;;;;;;;;11.43;83.84;95907.44;5116349;28;1126;-59
2022/12/18 01:58:21;;;;;;;;;;;;;;;11.46;83.85;95909.84;5116418;28;1072;-60
2022/12/18 02:00:48;;;;;;;;;;;;;;;11.44;83.82;95911.84;5116183;28;1024;-59
2022/12/18 02:03:14;;;;;;;;;;;;;;;11.37;83.48;95916.09;5116465;28;959;-59
2022/12/18 02:06:07;;;;;;;;;;;;;;;11.20;84.39;95922.22;5114996;28;1055;-60
2022/12/18 02:08:36;;;;;;;;;;;;;;;11.23;84.52;95921.91;5112417;28;1078;-59
2022/12/18 02:11:07;;;;;;;;;;;;;;;11.27;84.68;95915.28;5116095;28;1031;-60
2022/12/18 02:13:39;;;;;;;;;;;;;;;11.32;84.65;95915.66;5115893;28;1992;-60
2022/12/18 02:16:13;;;;;;;;;;;;;;;11.35;84.46;95926.09;5115836;28;1036;-59
2022/12/18 02:18:41;;;;;;;;;;;;;;;11.33;84.13;95922.72;5115531;28;964;-59
2022/12/18 02:21:26;;;;;;;;;;;;;;;11.33;83.99;95926.25;5115900;28;967;-59
2022/12/18 02:24:12;;;;;;;;;;;;;;;11.31;83.73;95927.38;5115731;28;1042;-60
2022/12/18 02:26:44;;;;;;;;;;;;;;;11.28;83.95;95919.63;5115955;28;1023;-59
2022/12/18 02:29:16;;;;;;;;;;;;;;;11.29;84.12;95922.19;5115775;28;1031;-60
2022/12/18 02:31:45;;;;;;;;;;;;;;;11.31;83.95;95932.75;5115616;28;1114;-60
2022/12/18 02:34:12;;;;;;;;;;;;;;;11.32;83.91;95934.41;5115476;28;1985;-60
2022/12/18 02:36:40;;;;;;;;;;;;;;;11.33;83.79;95928.91;5115790;28;1020;-60
2022/12/18 02:39:09;;;;;;;;;;;;;;;11.36;83.76;95930.44;5115445;28;1039;-60
2022/12/18 02:41:36;;;;;;;;;;;;;;;11.29;83.98;95932.88;5115410;28;1063;-60
2022/12/18 02:44:07;;;;;;;;;;;;;;;11.26;84.27;95943.88;5114187;28;1150;-60
2022/12/18 02:46:35;;;;;;;;;;;;;;;11.30;84.05;95937.22;5115445;28;1094;-60
2022/12/18 02:49:33;;;;;;;;;;;;;;;11.28;84.13;95946.41;5115207;28;1516;-60
2022/12/18 02:52:05;;;;;;;;;;;;;;;11.12;84.84;95942.50;5069837;28;1914;-60
2022/12/18 02:54:49;;;;;;;;;;;;;;;11.12;85.13;95941.69;5115449;28;1203;-60
2022/12/18 02:57:31;;;;;;;;;;;;;;;11.24;84.79;95951.22;5115155;28;987;-60
2022/12/18 03:00:00;;;;;;;;;;;;;;;11.29;84.47;95953.47;5115192;28;1014;-60
2022/12/18 03:02:34;;;;;;;;;;;;;;;11.29;84.40;95948.09;5115142;28;1083;-60
2022/12/18 03:05:13;;;;;;;;;;;;;;;11.32;84.31;95955.84;5115126;28;1037;-60
2022/12/18 03:08:12;;;;;;;;;;;;;;;11.32;84.05;95955.84;5114894;28;1062;-60
2022/12/18 03:10:40;;;;;;;;;;;;;;;11.31;84.14;95956.84;5080820;28;1427;-61
2022/12/18 03:13:10;;;;;;;;;;;;;;;11.33;83.79;95950.34;5114666;28;1996;-60
2022/12/18 03:15:45;;;;;;;;;;;;;;;11.22;84.11;95957.72;5114799;28;1031;-60
2022/12/18 03:18:21;;;;;;;;;;;;;;;11.11;84.59;95969.41;5114714;28;1079;-60
2022/12/18 03:20:49;;;;;;;;;;;;;;;11.19;84.33;95974.03;5114939;28;1120;-60
2022/12/18 03:23:17;;;;;;;;;;;;;;;11.21;84.44;95967.56;5114877;28;1056;-60
2022/12/18 03:25:44;;;;;;;;;;;;;;;11.18;84.32;95980.41;5113434;28;1027;-60
2022/12/18 03:28:13;;;;;;;;;;;;;;;11.07;84.41;95982.25;5114720;28;1066;-60
2022/12/18 03:30:40;;;;;;;;;;;;;;;11.04;84.56;95982.53;5113656;28;1648;-60
2022/12/18 03:33:19;;;;;;;;;;;;;;;10.97;84.63;95988.63;5113405;28;1906;-60
2022/12/18 03:35:46;;;;;;;;;;;;;;;10.84;85.32;95991.59;5114587;28;964;-60
2022/12/18 03:38:12;;;;;;;;;;;;;;;10.75;85.50;95986.06;5114413;28;1087;-60
2022/12/18 03:40:48;;;;;;;;;;;;;;;10.78;85.00;95994.84;5114447;28;1010;-60
2022/12/18 03:43:41;;;;;;;;;;;;;;;10.72;84.77;96005.09;5114320;28;1196;-60
2022/12/18 03:46:27;;;;;;;;;;;;;;;10.73;84.54;96009.44;5090449;28;1203;-60
2022/12/18 03:48:59;;;;;;;;;;;;;;;10.72;84.87;96015.81;5112813;28;1651;-60
2022/12/18 03:51:28;;;;;;;;;;;;;;;10.78;84.69;96019.75;5113928;28;1125;-60
2022/12/18 03:54:02;;;;;;;;;;;;;;;10.83;84.10;96014.81;5114289;28;1997;-60
2022/12/18 03:56:31;;;;;;;;;;;;;;;10.81;83.64;96026.63;5114150;28;1092;-60
2022/12/18 03:58:59;;;;;;;;;;;;;;;10.80;84.27;96020.44;5114168;28;1035;-59
2022/12/18 04:01:28;;;;;;;;;;;;;;;10.84;83.94;96029.03;5114192;28;1035;-60
2022/12/18 04:03:55;;;;;;;;;;;;;;;10.84;83.48;96037.91;5113951;28;1086;-60
2022/12/18 04:06:22;;;;;;;;;;;;;;;10.61;84.39;96044.53;5113911;28;1120;-60
2022/12/18 04:08:48;;;;;;;;;;;;;;;10.61;84.51;96047.19;5114148;28;1022;-60
2022/12/18 04:11:15;;;;;;;;;;;;;;;10.75;83.92;96046.75;5113957;28;920;-60
2022/12/18 04:13:42;;;;;;;;;;;;;;;10.81;82.95;96056.06;5112757;28;1906;-60
2022/12/18 04:16:09;;;;;;;;;;;;;;;10.68;83.69;96061.66;5113800;28;1047;-60
2022/12/18 04:18:36;;;;;;;;;;;;;;;10.42;84.57;96056.03;5113873;28;1071;-60
2022/12/18 04:21:02;;;;;;;;;;;;;;;10.44;84.82;96062.91;5112837;28;982;-60
2022/12/18 04:23:28;;;;;;;;;;;;;;;10.26;85.78;96068.06;5113845;28;1019;-60
2022/12/18 04:25:54;;;;;;;;;;;;;;;10.22;86.29;96068.47;5113915;28;1027;-60
2022/12/18 04:28:20;;;;;;;;;;;;;;;10.27;86.88;96075.09;5113803;28;1043;-59
2022/12/18 04:30:47;;;;;;;;;;;;;;;10.42;85.92;96072.91;5113626;28;1024;-60
2022/12/18 04:33:13;;;;;;;;;;;;;;;10.35;86.07;96072.59;5113664;28;1910;-59
2022/12/18 04:35:41;;;;;;;;;;;;;;;10.37;86.09;96072.47;5113713;28;1023;-60
2022/12/18 04:38:08;;;;;;;;;;;;;;;10.45;85.44;96078.00;5112464;28;1023;-59
2022/12/18 04:40:34;;;;;;;;;;;;;;;10.46;84.89;96084.19;5113914;28;1110;-59
2022/12/18 04:43:00;;;;;;;;;;;;;;;10.34;85.40;96089.63;5116647;28;941;-59
2022/12/18 04:45:26;;;;;;;;;;;;;;;10.34;86.04;96094.97;5117831;28;943;-59
2022/12/18 04:47:52;;;;;;;;;;;;;;;10.38;85.75;96097.38;5116385;28;1328;-59
2022/12/18 04:50:18;;;;;;;;;;;;;;;10.33;85.95;96095.13;5116150;28;1246;-59
2022/12/18 04:52:44;;;;;;;;;;;;;;;10.33;85.84;96108.47;5117502;28;1929;-59
2022/12/18 04:55:10;;;;;;;;;;;;;;;10.22;86.48;96106.72;5117759;28;1046;-59
2022/12/18 04:57:36;;;;;;;;;;;;;;;10.22;86.37;96114.75;5117588;28;1050;-60
2022/12/18 05:00:03;;;;;;;;;;;;;;;10.14;86.55;96115.41;5117576;28;817;-59
2022/12/18 05:02:29;;;;;;;;;;;;;;;10.14;87.15;96127.94;5117360;28;1046;-60
2022/12/18 05:04:55;;;;;;;;;;;;;;;10.20;86.03;96119.38;5117364;28;1055;-59
2022/12/18 05:07:21;;;;;;;;;;;;;;;10.22;86.02;96140.63;5117444;28;995;-59
2022/12/18 05:09:47;;;;;;;;;;;;;;;10.29;86.05;96134.59;5116084;28;1051;-59
2022/12/18 05:12:13;;;;;;;;;;;;;;;10.27;85.83;96144.59;5117195;28;1986;-59
2022/12/18 05:14:39;;;;;;;;;;;;;;;10.04;86.79;96137.75;5117116;28;1048;-59
2022/12/18 05:17:05;;;;;;;;;;;;;;;10.06;86.91;96157.16;5116011;28;1001;-59
2022/12/18 05:19:31;;;;;;;;;;;;;;;10.11;86.51;96146.91;5116938;28;1005;-59
2022/12/18 05:21:57;;;;;;;;;;;;;;;10.02;86.16;96150.41;5117341;28;953;-59
2022/12/18 05:24:23;;;;;;;;;;;;;;;9.93;86.43;96155.53;5117121;28;995;-62
2022/12/18 05:26:49;;;;;;;;;;;;;;;9.82;87.38;96158.28;5117134;28;963;-60
2022/12/18 05:29:15;;;;;;;;;;;;;;;9.82;87.31;96168.13;5115882;28;1328;-62
2022/12/18 05:31:41;;;;;;;;;;;;;;;9.74;87.28;96169.63;5116817;28;1107;-61
2022/12/18 05:34:07;;;;;;;;;;;;;;;9.72;87.19;96170.75;5116741;28;1906;-61
2022/12/18 05:36:33;;;;;;;;;;;;;;;9.82;86.07;96174.31;5115449;28;1141;-61
2022/12/18 05:39:00;;;;;;;;;;;;;;;9.97;85.69;96175.66;5116917;28;1011;-61
2022/12/18 05:41:26;;;;;;;;;;;;;;;9.94;84.92;96175.94;5116773;28;1019;-60
2022/12/18 05:43:52;;;;;;;;;;;;;;;9.91;85.34;96175.38;5116780;27;1020;-61
2022/12/18 05:46:18;;;;;;;;;;;;;;;9.79;85.46;96179.94;5116463;28;1115;-61
2022/12/18 05:48:45;;;;;;;;;;;;;;;9.89;85.41;96180.00;5116428;28;1322;-61
2022/12/18 05:51:12;;;;;;;;;;;;;;;9.88;85.08;96181.78;5116397;28;1080;-61
2022/12/18 05:53:38;;;;;;;;;;;;;;;9.87;85.29;96180.13;5115478;28;1901;-61
2022/12/18 05:56:06;;;;;;;;;;;;;;;9.87;85.21;96198.81;5115344;28;991;-61
2022/12/18 05:58:32;;;;;;;;;;;;;;;9.99;84.67;96196.06;5116405;28;943;-61
2022/12/18 06:01:05;;;;;;;;;;;;;;;10.02;83.28;96193.16;5115168;28;979;-61
2022/12/18 06:03:31;;;;;;;;;;;;;;;10.08;83.05;96197.97;5116422;28;1023;-61
2022/12/18 06:05:57;;;;;;;;;;;;;;;10.02;82.43;96201.16;5116263;28;1035;-61
2022/12/18 06:08:24;;;;;;;;;;;;;;;9.94;83.24;96202.66;5115053;28;1024;-61
2022/12/18 06:10:51;;;;;;;;;;;;;;;9.99;82.69;96204.94;5116118;28;1114;-61
2022/12/18 06:13:17;;;;;;;;;;;;;;;10.03;82.59;96201.00;5116069;28;1909;-61
2022/12/18 06:15:43;;;;;;;;;;;;;;;9.97;81.82;96201.53;5116025;28;1039;-61
2022/12/18 06:18:09;;;;;;;;;;;;;;;9.92;82.12;96204.63;5115888;28;1083;-62
2022/12/18 06:20:36;;;;;;;;;;;;;;;10.01;82.06;96216.31;5116061;28;1023;-60
2022/12/18 06:23:03;;;;;;;;;;;;;;;10.13;82.06;96209.06;5115878;28;1023;-60
2022/12/18 06:25:29;;;;;;;;;;;;;;;10.09;81.04;96208.53;5115863;28;949;-60
2022/12/18 06:27:55;;;;;;;;;;;;;;;10.10;80.54;96212.03;5115377;28;1018;-60
2022/12/18 06:30:21;;;;;;;;;;;;;;;10.02;80.65;96215.38;5114845;28;1003;-61
2022/12/18 06:32:51;;;;;;;;;;;;;;;9.87;81.79;96214.84;5114936;28;1976;-60
2022/12/18 06:35:17;;;;;;;;;;;;;;;9.93;81.26;96225.00;5114047;28;1014;-60
2022/12/18 06:37:43;;;;;;;;;;;;;;;9.87;81.04;96230.03;5115156;28;1019;-60
2022/12/18 06:40:09;;;;;;;;;;;;;;;9.77;81.44;96225.47;5115524;28;952;-60
2022/12/18 06:42:35;;;;;;;;;;;;;;;9.89;81.50;96231.59;5114256;28;967;-60
2022/12/18 06:45:01;;;;;;;;;;;;;;;10.03;81.01;96235.75;5115339;28;1064;-61
2022/12/18 06:47:27;;;;;;;;;;;;;;;10.11;80.33;96230.63;5115118;28;1235;-63
2022/12/18 06:49:53;;;;;;;;;;;;;;;10.15;79.99;96250.75;5115089;28;1555;-61
2022/12/18 06:52:20;;;;;;;;;;;;;;;10.27;80.25;96254.19;5114066;28;1909;-60
2022/12/18 06:54:46;;;;;;;;;;;;;;;10.29;79.83;96256.72;5115157;28;1054;-60
2022/12/18 06:57:12;;;;;;;;;;;;;;;10.32;79.33;96264.50;5115129;28;1071;-60
2022/12/18 06:59:38;;;;;;;;;;;;;;;10.26;79.25;96257.84;5113750;28;1125;-60
2022/12/18 07:02:04;;;;;;;;;;;;;;;10.19;79.52;96279.88;5115181;28;1059;-60
2022/12/18 07:04:30;;;;;;;;;;;;;;;10.10;79.86;96277.00;5115000;28;959;-61
2022/12/18 07:06:57;;;;;;;;;;;;;;;10.11;80.09;96281.38;5115131;28;1019;-61
2022/12/18 07:09:23;;;;;;;;;;;;;;;10.08;79.33;96289.66;5113744;28;957;-61
2022/12/18 07:11:49;;;;;;;;;;;;;;;9.97;79.80;96287.03;5114944;28;960;-60
2022/12/18 07:14:15;;;;;;;;;;;;;;;9.96;79.29;96293.38;5114727;28;1905;-60
2022/12/18 07:16:41;;;;;;;;;;;;;;;10.00;80.25;96304.63;5115053;28;1031;-63
2022/12/18 07:19:07;;;;;;;;;;;;;;;10.05;80.18;96299.75;5114839;28;1019;-61
2022/12/18 07:21:34;;;;;;;;;;;;;;;10.09;78.76;96310.06;5114763;28;925;-61
2022/12/18 07:24:00;;;;;;;;;;;;;;;10.03;77.96;96305.22;5113770;28;905;-61
2022/12/18 07:26:26;;;;;;;;;;;;;;;10.02;76.76;96316.06;5113433;28;1027;-61
2022/12/18 07:28:54;;;;;;;;;;;;;;;9.97;76.04;96319.94;5114682;28;935;-61
2022/12/18 07:31:21;;;;;;;;;;;;;;;9.96;75.45;96318.28;5114706;28;1027;-61
2022/12/18 07:33:48;;;;;;;;;;;;;;;10.00;75.60;96318.00;5114675;28;1897;-61
2022/12/18 07:36:14;;;;;;;;;;;;;;;10.04;75.50;96325.63;5114420;28;1027;-61
2022/12/18 07:38:40;;;;;;;;;;;;;;;10.06;76.03;96325.50;5113087;28;1028;-61
2022/12/18 07:41:08;;;;;;;;;;;;;;;9.97;76.27;96332.47;5114382;28;1200;-60
2022/12/18 07:43:34;;;;;;;;;;;;;;;10.05;76.40;96339.84;5114181;28;960;-58
2022/12/18 07:46:01;;;;;;;;;;;;;;;10.11;75.72;96337.50;5147413;27;1015;-58
2022/12/18 07:48:27;;;;;;;;;;;;;;;10.13;76.73;96338.22;5114115;28;1545;-58
2022/12/18 07:50:53;;;;;;;;;;;;;;;10.14;76.29;96349.75;5114216;28;1171;-58
2022/12/18 07:53:19;;;;;;;;;;;;;;;10.22;75.79;96349.09;5114179;28;2005;-58
2022/12/18 07:55:45;;;;;;;;;;;;;;;10.21;76.27;96348.28;5114247;27;976;-58
2022/12/18 07:58:11;;;;;;;;;;;;;;;10.17;77.18;96357.53;5114181;28;1024;-60
2022/12/18 08:00:38;;;;;;;;;;;;;;;10.16;76.99;96353.97;5096215;28;1610;-59
2022/12/18 08:03:04;;;;;;;;;;;;;;;9.94;77.25;96362.97;5114012;28;1079;-59
2022/12/18 08:05:30;;;;;;;;;;;;;;;9.77;78.51;96367.03;5114011;28;1019;-59
2022/12/18 08:07:56;;;;;;;;;;;;;;;10.00;78.48;96361.63;5114157;28;1055;-59
2022/12/18 08:10:22;;;;;;;;;;;;;;;10.08;77.92;96359.13;5113806;28;1043;-61
2022/12/18 08:12:49;;;;;;;;;;;;;;;10.08;77.86;96363.63;5112776;28;1905;-61
2022/12/18 08:15:15;;;;;;;;;;;;;;;10.20;77.53;96367.94;5113772;28;1059;-61
2022/12/18 08:17:41;;;;;;;;;;;;;;;10.29;77.68;96372.50;5112460;28;1028;-61
2022/12/18 08:20:08;;;;;;;;;;;;;;;10.31;77.74;96375.94;5114062;28;1287;-61
2022/12/18 08:22:35;;;;;;;;;;;;;;;10.41;78.08;96372.50;5112608;28;1051;-61
2022/12/18 08:25:01;;;;;;;;;;;;;;;10.42;77.29;96383.06;5113954;28;988;-61
2022/12/18 08:27:28;;;;;;;;;;;;;;;10.53;77.41;96384.84;5113687;28;1024;-61
2022/12/18 08:29:54;;;;;;;;;;;;;;;10.54;77.58;96386.50;5114076;28;1038;-61
2022/12/18 08:32:20;;;;;;;;;;;;;;;10.62;75.29;96384.03;5113858;28;1894;-61
2022/12/18 08:34:46;;;;;;;;;;;;;;;10.94;75.72;96378.56;5113705;28;1020;-61
2022/12/18 08:37:12;;;;;;;;;;;;;;;11.24;74.45;96371.50;5113835;28;1014;-61
2022/12/18 08:39:38;;;;;;;;;;;;;;;11.23;73.63;96377.88;5112501;28;1021;-61
2022/12/18 08:44:49;;;;;;;;;;;;;;;11.06;73.78;96384.69;5113730;28;1039;-61
2022/12/18 08:47:15;;;;;;;;;;;;;;;10.84;73.16;96387.53;5113762;28;1627;-69
2022/12/18 08:49:41;;;;;;;;;;;;;;;10.69;74.59;96384.34;5113460;28;1187;-61
2022/12/18 08:52:07;;;;;;;;;;;;;;;10.69;73.33;96381.69;5113671;28;1981;-60
2022/12/18 08:54:33;;;;;;;;;;;;;;;10.73;73.56;96391.13;5113468;28;1098;-61
2022/12/18 08:56:59;;;;;;;;;;;;;;;10.95;72.74;96390.16;5113539;28;1184;-61
2022/12/18 08:59:26;;;;;;;;;;;;;;;11.07;72.57;96381.03;5112239;28;1019;-61
2022/12/18 09:01:53;;;;;;;;;;;;;;;11.17;72.17;96385.56;5113697;28;1015;-58
2022/12/18 09:04:19;;;;;;;;;;;;;;;11.21;71.88;96381.66;5113368;28;1087;-61
2022/12/18 09:06:45;;;;;;;;;;;;;;;11.11;71.67;96385.13;5112203;28;1416;-61
2022/12/18 09:09:12;;;;;;;;;;;;;;;11.12;71.55;96380.66;5112115;28;1114;-58
2022/12/18 09:11:38;;;;;;;;;;;;;;;11.16;71.44;96384.75;5113300;28;999;-59
2022/12/18 09:14:04;;;;;;;;;;;;;;;11.22;70.10;96376.16;5113498;28;2001;-59
2022/12/18 09:16:31;;;;;;;;;;;;;;;11.41;70.45;96379.91;5113325;28;1106;-60
2022/12/18 09:19:01;;;;;;;;;;;;;;;11.64;68.56;96369.81;5113348;28;1140;-59
2022/12/18 09:21:28;;;;;;;;;;;;;;;11.74;67.79;96362.63;5113342;28;1030;-59
2022/12/18 09:23:55;;;;;;;;;;;;;;;12.06;67.05;96372.28;5113329;28;1237;-59
2022/12/18 09:26:22;;;;;;;;;;;;;;;12.37;66.42;96367.63;5113454;28;984;-59
2022/12/18 09:28:48;;;;;;;;;;;;;;;12.21;67.80;96368.19;5115539;28;953;-59
2022/12/18 09:31:15;;;;;;;;;;;;;;;12.15;66.07;96373.28;5115795;28;1039;-59
2022/12/18 09:33:41;;;;;;;;;;;;;;;12.09;66.43;96370.16;5116747;28;1906;-59
2022/12/18 09:36:08;;;;;;;;;;;;;;;12.03;66.71;96381.47;5116786;28;971;-59
2022/12/18 09:38:35;;;;;;;;;;;;;;;11.84;66.95;96382.25;5115289;28;1019;-58
2022/12/18 09:41:05;;;;;;;;;;;;;;;11.69;68.51;96389.00;5116901;28;1002;-58
2022/12/18 09:43:44;;;;;;;;;;;;;;;11.77;67.80;96381.09;5115575;28;1015;-58
2022/12/18 09:46:16;;;;;;;;;;;;;;;11.81;68.13;96387.03;5116537;28;1082;-58
2022/12/18 09:52:11;;;;;;;;;;;;;;;11.81;67.44;96376.31;5113858;28;1214;-58
2022/12/18 09:54:41;;;;;;;;;;;;;;;11.76;67.66;96381.25;5116313;28;1056;-58
2022/12/18 09:57:13;;;;;;;;;;;;;;;11.77;67.57;96386.47;5115102;28;995;-57
2022/12/18 09:59:39;;;;;;;;;;;;;;;11.93;67.86;96369.88;5116167;28;1024;-57
2022/12/18 10:02:16;;;;;;;;;;;;;;;12.06;66.45;96369.59;5116140;28;1260;-58
2022/12/18 10:04:42;;;;;;;;;;;;;;;12.14;67.16;96375.13;5116199;28;1039;-58
2022/12/18 10:07:17;;;;;;;;;;;;;;;12.10;67.02;96371.00;5116214;28;1027;-58
2022/12/18 10:09:51;;;;;;;;;;;;;;;12.01;67.14;96367.34;5116027;28;1102;-58
2022/12/18 10:12:17;;;;;;;;;;;;;;;11.89;66.81;96365.75;5116239;28;1999;-58
2022/12/18 10:14:50;;;;;;;;;;;;;;;11.93;67.11;96361.00;5116066;28;1051;-58
2022/12/18 10:17:16;;;;;;;;;;;;;;;11.93;67.64;96374.38;5116155;28;1040;-58
2022/12/18 10:19:52;;;;;;;;;;;;;;;12.05;67.49;96365.25;5114589;28;1035;-58
2022/12/18 10:22:50;;;;;;;;;;;;;;;11.90;66.52;96365.66;5115876;28;1023;-58
2022/12/18 10:25:16;;;;;;;;;;;;;;;11.99;66.94;96365.78;5070883;28;1056;-58
2022/12/18 10:27:43;;;;;;;;;;;;;;;12.03;65.95;96370.75;5115804;28;980;-58
2022/12/18 10:30:13;;;;;;;;;;;;;;;12.00;67.21;96371.00;5114670;28;988;-58
2022/12/18 10:32:39;;;;;;;;;;;;;;;12.18;67.29;96356.91;5115515;27;1906;-58
2022/12/18 10:35:11;;;;;;;;;;;;;;;12.35;65.30;96358.03;5115588;27;1051;-58
2022/12/18 10:37:57;;;;;;;;;;;;;;;12.45;65.11;96361.56;5115671;28;1023;-58
2022/12/18 10:40:23;;;;;;;;;;;;;;;12.45;64.36;96358.88;5114859;28;1105;-58
2022/12/18 10:43:05;;;;;;;;;;;;;;;12.35;64.82;96358.88;5115338;28;1043;-58
2022/12/18 10:45:32;;;;;;;;;;;;;;;12.29;64.27;96357.63;5114018;28;1174;-58
2022/12/18 10:47:58;;;;;;;;;;;;;;;12.27;64.80;96359.59;5115516;28;1283;-58
2022/12/18 10:50:28;;;;;;;;;;;;;;;12.33;64.99;96349.28;5115210;28;1112;-59
2022/12/18 10:52:58;;;;;;;;;;;;;;;12.39;64.88;96354.94;5115669;28;1909;-58
2022/12/18 10:55:30;;;;;;;;;;;;;;;12.37;64.86;96362.28;5115601;28;1008;-58
2022/12/18 10:58:12;;;;;;;;;;;;;;;12.30;64.82;96353.09;5115132;28;1023;-58
2022/12/18 11:00:38;;;;;;;;;;;;;;;12.36;65.40;96352.50;5115073;27;1027;-58
2022/12/18 11:03:24;;;;;;;;;;;;;;;12.50;66.17;96345.84;5115113;28;969;-58
2022/12/18 11:06:00;;;;;;;;;;;;;;;12.45;65.24;96337.41;5114926;27;1077;-58
2022/12/18 11:08:26;;;;;;;;;;;;;;;12.44;64.82;96338.38;5114855;28;1141;-58
2022/12/18 11:10:52;;;;;;;;;;;;;;;12.52;63.64;96349.25;5113903;28;1027;-58
2022/12/18 11:13:21;;;;;;;;;;;;;;;12.45;63.56;96346.31;5113657;28;1909;-58
2022/12/18 11:15:47;;;;;;;;;;;;;;;12.45;64.08;96350.81;5114995;28;1036;-58
2022/12/18 11:18:22;;;;;;;;;;;;;;;12.49;62.23;96357.59;5114879;28;976;-58
2022/12/18 11:20:52;;;;;;;;;;;;;;;12.54;62.19;96354.47;5114723;28;1152;-58
2022/12/18 11:23:20;;;;;;;;;;;;;;;12.61;62.20;96352.91;5114579;28;959;-57
2022/12/18 11:26:01;;;;;;;;;;;;;;;12.50;61.23;96356.59;5114585;28;1015;-58
2022/12/18 11:28:29;;;;;;;;;;;;;;;12.68;62.10;96354.88;5114628;28;940;-58
2022/12/18 11:31:14;;;;;;;;;;;;;;;13.00;60.63;96364.38;5114593;28;1111;-65
2022/12/18 11:33:42;;;;;;;;;;;;;;;13.05;60.42;96362.13;5114261;28;1898;-58
2022/12/18 11:36:09;;;;;;;;;;;;;;;12.94;60.85;96364.09;5114579;28;952;-58
2022/12/18 11:38:36;;;;;;;;;;;;;;;12.83;60.94;96370.53;5114484;28;1002;-58
2022/12/18 11:41:12;;;;;;;;;;;;;;;12.74;62.20;96374.06;5113317;28;1075;-59
2022/12/18 11:43:41;;;;;;;;;;;;;;;12.78;61.24;96381.66;5114575;28;1032;-59
2022/12/18 11:46:14;;;;;;;;;;;;;;;12.75;61.36;96386.47;5114208;28;1079;-59
2022/12/18 11:48:57;;;;;;;;;;;;;;;12.65;61.25;96373.97;5113097;28;1275;-59
2022/12/18 11:51:31;;;;;;;;;;;;;;;12.66;61.62;96375.63;5113172;28;1147;-59
2022/12/18 11:53:58;;;;;;;;;;;;;;;12.64;61.42;96374.94;5112849;28;1976;-58
2022/12/18 11:56:24;;;;;;;;;;;;;;;12.48;61.34;96371.97;5114047;28;1023;-58
2022/12/18 11:59:02;;;;;;;;;;;;;;;12.42;61.86;96375.25;5114007;28;1043;-58
2022/12/18 12:01:34;;;;;;;;;;;;;;;12.41;61.51;96378.94;5114095;28;1023;-58
2022/12/18 12:04:00;;;;;;;;;;;;;;;12.30;61.15;96372.72;5114125;28;1058;-58
2022/12/18 12:06:26;;;;;;;;;;;;;;;12.16;62.31;96378.50;5113916;28;968;-62
2022/12/18 12:09:25;;;;;;;;;;;;;;;12.02;62.34;96378.91;5114079;28;1052;-59
2022/12/18 12:11:51;;;;;;;;;;;;;;;11.95;61.61;96380.44;5069133;28;1299;-62
2022/12/18 12:14:26;;;;;;;;;;;;;;;11.84;62.15;96376.91;5113790;28;1898;-60
2022/12/18 12:16:58;;;;;;;;;;;;;;;12.00;61.54;96386.25;5112935;28;998;-59
2022/12/18 12:19:27;;;;;;;;;;;;;;;11.94;60.79;96379.63;5113911;28;979;-59
2022/12/18 12:21:58;;;;;;;;;;;;;;;11.93;61.34;96379.75;5113878;28;1047;-59
2022/12/18 12:24:26;;;;;;;;;;;;;;;11.81;60.42;96379.84;5113810;28;1007;-59
2022/12/18 12:26:58;;;;;;;;;;;;;;;11.75;60.83;96377.72;5113975;28;1263;-59
2022/12/18 12:29:24;;;;;;;;;;;;;;;11.79;60.87;96383.66;5113647;28;1054;-59
2022/12/18 12:32:03;;;;;;;;;;;;;;;11.80;59.25;96382.66;5113831;28;994;-58
2022/12/18 12:34:44;;;;;;;;;;;;;;;11.86;60.65;96380.28;5112425;28;1905;-59
2022/12/18 12:37:10;;;;;;;;;;;;;;;11.76;60.14;96387.47;5113634;28;1500;-58
2022/12/18 12:39:37;;;;;;;;;;;;;;;11.75;59.14;96390.28;5113770;28;1003;-58
2022/12/18 12:44:53;;;;;;;;;;;;;;;11.61;60.21;96384.34;5113792;28;948;-58
2022/12/18 12:47:31;;;;;;;;;;;;;;;11.66;60.38;96389.25;5113770;28;1683;-58
2022/12/18 12:49:59;;;;;;;;;;;;;;;11.60;60.58;96400.53;5113510;28;1230;-61
2022/12/18 12:52:51;;;;;;;;;;;;;;;11.60;59.87;96403.22;5113460;28;1910;-58
2022/12/18 12:55:20;;;;;;;;;;;;;;;11.58;60.22;96399.81;5110631;28;1032;-58
2022/12/18 12:57:52;;;;;;;;;;;;;;;11.52;60.31;96403.91;5113779;28;1014;-57
2022/12/18 13:00:19;;;;;;;;;;;;;;;11.40;59.49;96413.88;5113616;28;1497;-58
2022/12/18 13:02:54;;;;;;;;;;;;;;;11.36;60.26;96415.09;5115609;28;1090;-58
2022/12/18 13:05:38;;;;;;;;;;;;;;;11.36;60.04;96414.25;5117356;28;1090;-58
2022/12/18 13:08:09;;;;;;;;;;;;;;;11.36;58.63;96423.13;5117522;28;1011;-58
2022/12/18 13:10:42;;;;;;;;;;;;;;;11.32;59.56;96422.59;5117293;27;1027;-59
2022/12/18 13:13:09;;;;;;;;;;;;;;;11.28;58.84;96415.78;5117229;28;1918;-59
2022/12/18 13:15:45;;;;;;;;;;;;;;;11.29;59.13;96417.50;5117254;28;1027;-58
2022/12/18 13:18:11;;;;;;;;;;;;;;;11.27;59.03;96424.81;5117175;28;1164;-59